sensor_id;sensor_type;location;lat;lon;timestamp;temperature;humidity
17148;DHT22;8689;47.364;8.796;2023-07-08T00:00:10;18.70;74.00
17148;DHT22;8689;47.364;8.796;2023-07-08T00:02:38;18.60;73.80
17148;DHT22;8689;47.364;8.796;2023-07-08T00:05:05;18.60;73.90
17148;DHT22;8689;47.364;8.796;2023-07-08T00:07:34;18.60;74.70
17148;DHT22;8689;47.364;8.796;2023-07-08T00:10:02;18.60;74.90
17148;DHT22;8689;47.364;8.796;2023-07-08T00:12:35;18.60;75.20
17148;DHT22;8689;47.364;8.796;2023-07-08T00:15:02;18.60;75.50
17148;DHT22;8689;47.364;8.796;2023-07-08T00:17:30;18.60;75.50
17148;DHT22;8689;47.364;8.796;2023-07-08T00:19:57;18.60;75.20
17148;DHT22;8689;47.364;8.796;2023-07-08T00:22:24;18.60;74.30
17148;DHT22;8689;47.364;8.796;2023-07-08T00:24:54;18.70;73.80
17148;DHT22;8689;47.364;8.796;2023-07-08T00:27:21;19.10;73.10
17148;DHT22;8689;47.364;8.796;2023-07-08T00:29:48;19.30;71.80
17148;DHT22;8689;47.364;8.796;2023-07-08T00:32:15;19.40;70.30
17148;DHT22;8689;47.364;8.796;2023-07-08T00:34:42;19.70;68.70
17148;DHT22;8689;47.364;8.796;2023-07-08T00:37:11;19.80;68.00
17148;DHT22;8689;47.364;8.796;2023-07-08T00:39:38;19.90;66.60
17148;DHT22;8689;47.364;8.796;2023-07-08T00:42:15;20.00;65.20
17148;DHT22;8689;47.364;8.796;2023-07-08T00:44:43;20.20;64.50
17148;DHT22;8689;47.364;8.796;2023-07-08T00:47:14;20.30;62.50
17148;DHT22;8689;47.364;8.796;2023-07-08T00:49:44;20.50;60.80
17148;DHT22;8689;47.364;8.796;2023-07-08T00:52:21;20.60;62.70
17148;DHT22;8689;47.364;8.796;2023-07-08T00:54:50;20.60;62.70
17148;DHT22;8689;47.364;8.796;2023-07-08T00:57:21;20.50;62.60
17148;DHT22;8689;47.364;8.796;2023-07-08T00:59:52;20.60;62.70
17148;DHT22;8689;47.364;8.796;2023-07-08T01:02:21;20.50;62.60
17148;DHT22;8689;47.364;8.796;2023-07-08T01:04:52;20.50;62.00
17148;DHT22;8689;47.364;8.796;2023-07-08T01:07:20;20.60;62.90
17148;DHT22;8689;47.364;8.796;2023-07-08T01:09:52;20.60;62.70
17148;DHT22;8689;47.364;8.796;2023-07-08T01:12:26;20.60;62.70
17148;DHT22;8689;47.364;8.796;2023-07-08T01:14:55;20.60;63.20
17148;DHT22;8689;47.364;8.796;2023-07-08T01:17:23;20.60;63.60
17148;DHT22;8689;47.364;8.796;2023-07-08T01:19:50;20.50;62.60
17148;DHT22;8689;47.364;8.796;2023-07-08T01:22:22;20.60;62.70
17148;DHT22;8689;47.364;8.796;2023-07-08T01:24:50;20.60;63.80
17148;DHT22;8689;47.364;8.796;2023-07-08T01:27:19;20.50;62.70
17148;DHT22;8689;47.364;8.796;2023-07-08T01:29:46;20.60;62.90
17148;DHT22;8689;47.364;8.796;2023-07-08T01:32:14;20.50;62.60
17148;DHT22;8689;47.364;8.796;2023-07-08T01:34:45;20.60;63.20
17148;DHT22;8689;47.364;8.796;2023-07-08T01:37:32;20.60;64.30
17148;DHT22;8689;47.364;8.796;2023-07-08T01:40:23;20.40;65.90
17148;DHT22;8689;47.364;8.796;2023-07-08T01:42:50;20.30;66.50
17148;DHT22;8689;47.364;8.796;2023-07-08T01:45:20;20.10;66.50
17148;DHT22;8689;47.364;8.796;2023-07-08T01:47:51;20.00;66.30
17148;DHT22;8689;47.364;8.796;2023-07-08T01:50:20;19.90;66.60
17148;DHT22;8689;47.364;8.796;2023-07-08T01:52:51;19.90;67.40
17148;DHT22;8689;47.364;8.796;2023-07-08T01:55:22;19.80;66.60
17148;DHT22;8689;47.364;8.796;2023-07-08T01:57:51;19.80;65.80
17148;DHT22;8689;47.364;8.796;2023-07-08T02:00:20;19.90;65.40
17148;DHT22;8689;47.364;8.796;2023-07-08T02:02:48;20.00;65.30
17148;DHT22;8689;47.364;8.796;2023-07-08T02:05:15;20.00;67.50
17148;DHT22;8689;47.364;8.796;2023-07-08T02:07:42;20.00;66.20
17148;DHT22;8689;47.364;8.796;2023-07-08T02:10:11;20.00;64.60
17148;DHT22;8689;47.364;8.796;2023-07-08T02:12:38;20.10;64.50
17148;DHT22;8689;47.364;8.796;2023-07-08T02:15:06;20.20;66.40
17148;DHT22;8689;47.364;8.796;2023-07-08T02:17:35;20.10;66.40
17148;DHT22;8689;47.364;8.796;2023-07-08T02:20:02;20.00;65.30
17148;DHT22;8689;47.364;8.796;2023-07-08T02:22:30;20.00;65.40
17148;DHT22;8689;47.364;8.796;2023-07-08T02:24:57;20.00;66.20
17148;DHT22;8689;47.364;8.796;2023-07-08T02:27:26;20.00;65.60
17148;DHT22;8689;47.364;8.796;2023-07-08T02:29:54;20.00;66.70
17148;DHT22;8689;47.364;8.796;2023-07-08T02:32:21;19.90;67.00
17148;DHT22;8689;47.364;8.796;2023-07-08T02:34:48;19.80;66.30
17148;DHT22;8689;47.364;8.796;2023-07-08T02:37:17;19.80;66.70
17148;DHT22;8689;47.364;8.796;2023-07-08T02:39:44;19.80;66.70
17148;DHT22;8689;47.364;8.796;2023-07-08T02:42:12;19.70;66.10
17148;DHT22;8689;47.364;8.796;2023-07-08T02:44:40;19.70;66.40
17148;DHT22;8689;47.364;8.796;2023-07-08T02:47:07;19.70;66.60
17148;DHT22;8689;47.364;8.796;2023-07-08T02:49:35;19.70;67.10
17148;DHT22;8689;47.364;8.796;2023-07-08T02:52:03;19.70;67.60
17148;DHT22;8689;47.364;8.796;2023-07-08T02:54:30;19.60;67.00
17148;DHT22;8689;47.364;8.796;2023-07-08T02:56:57;19.60;68.00
17148;DHT22;8689;47.364;8.796;2023-07-08T02:59:24;19.50;68.40
17148;DHT22;8689;47.364;8.796;2023-07-08T03:01:54;19.40;68.40
17148;DHT22;8689;47.364;8.796;2023-07-08T03:04:22;19.30;68.70
17148;DHT22;8689;47.364;8.796;2023-07-08T03:06:51;19.30;68.40
17148;DHT22;8689;47.364;8.796;2023-07-08T03:09:18;19.30;68.60
17148;DHT22;8689;47.364;8.796;2023-07-08T03:11:45;19.30;69.70
17148;DHT22;8689;47.364;8.796;2023-07-08T03:14:12;19.20;69.50
17148;DHT22;8689;47.364;8.796;2023-07-08T03:16:40;19.30;70.00
17148;DHT22;8689;47.364;8.796;2023-07-08T03:19:10;19.20;70.20
17148;DHT22;8689;47.364;8.796;2023-07-08T03:21:40;19.20;70.30
17148;DHT22;8689;47.364;8.796;2023-07-08T03:24:09;19.20;70.70
17148;DHT22;8689;47.364;8.796;2023-07-08T03:26:38;19.20;69.60
17148;DHT22;8689;47.364;8.796;2023-07-08T03:29:10;19.30;70.40
17148;DHT22;8689;47.364;8.796;2023-07-08T03:31:39;19.30;71.10
17148;DHT22;8689;47.364;8.796;2023-07-08T03:34:10;19.30;69.60
17148;DHT22;8689;47.364;8.796;2023-07-08T03:36:41;19.30;70.60
17148;DHT22;8689;47.364;8.796;2023-07-08T03:39:14;19.30;71.80
17148;DHT22;8689;47.364;8.796;2023-07-08T03:41:42;19.10;73.50
17148;DHT22;8689;47.364;8.796;2023-07-08T03:44:09;19.00;75.30
17148;DHT22;8689;47.364;8.796;2023-07-08T03:46:36;18.90;76.00
17148;DHT22;8689;47.364;8.796;2023-07-08T03:49:04;18.80;76.60
17148;DHT22;8689;47.364;8.796;2023-07-08T03:51:35;18.90;77.00
17148;DHT22;8689;47.364;8.796;2023-07-08T03:54:03;18.80;78.00
17148;DHT22;8689;47.364;8.796;2023-07-08T03:56:31;18.80;77.10
17148;DHT22;8689;47.364;8.796;2023-07-08T03:58:58;18.70;77.30
17148;DHT22;8689;47.364;8.796;2023-07-08T04:01:25;18.80;77.10
17148;DHT22;8689;47.364;8.796;2023-07-08T04:03:55;18.90;77.10
17148;DHT22;8689;47.364;8.796;2023-07-08T04:06:22;19.00;77.80
17148;DHT22;8689;47.364;8.796;2023-07-08T04:08:51;19.00;78.40
17148;DHT22;8689;47.364;8.796;2023-07-08T04:11:20;19.10;79.70
17148;DHT22;8689;47.364;8.796;2023-07-08T04:13:47;19.10;80.40
17148;DHT22;8689;47.364;8.796;2023-07-08T04:16:18;19.10;80.60
17148;DHT22;8689;47.364;8.796;2023-07-08T04:18:45;19.00;81.00
17148;DHT22;8689;47.364;8.796;2023-07-08T04:21:13;19.00;81.40
17148;DHT22;8689;47.364;8.796;2023-07-08T04:23:40;19.00;82.60
17148;DHT22;8689;47.364;8.796;2023-07-08T04:26:09;19.00;82.70
17148;DHT22;8689;47.364;8.796;2023-07-08T04:28:36;18.90;83.00
17148;DHT22;8689;47.364;8.796;2023-07-08T04:31:03;18.90;83.10
17148;DHT22;8689;47.364;8.796;2023-07-08T04:33:31;18.90;83.40
17148;DHT22;8689;47.364;8.796;2023-07-08T04:35:58;18.90;83.30
17148;DHT22;8689;47.364;8.796;2023-07-08T04:38:26;18.90;83.40
17148;DHT22;8689;47.364;8.796;2023-07-08T04:40:54;18.90;84.10
17148;DHT22;8689;47.364;8.796;2023-07-08T04:43:24;18.90;84.80
17148;DHT22;8689;47.364;8.796;2023-07-08T04:45:54;18.80;85.10
17148;DHT22;8689;47.364;8.796;2023-07-08T04:48:22;18.80;85.70
17148;DHT22;8689;47.364;8.796;2023-07-08T04:50:51;18.70;85.60
17148;DHT22;8689;47.364;8.796;2023-07-08T04:53:19;18.70;86.20
17148;DHT22;8689;47.364;8.796;2023-07-08T04:55:48;18.70;87.30
17148;DHT22;8689;47.364;8.796;2023-07-08T04:58:17;18.70;88.00
17148;DHT22;8689;47.364;8.796;2023-07-08T05:00:46;18.70;87.90
17148;DHT22;8689;47.364;8.796;2023-07-08T05:03:13;18.70;88.00
17148;DHT22;8689;47.364;8.796;2023-07-08T05:05:41;18.70;89.00
17148;DHT22;8689;47.364;8.796;2023-07-08T05:08:08;18.70;88.60
17148;DHT22;8689;47.364;8.796;2023-07-08T05:10:35;18.70;85.90
17148;DHT22;8689;47.364;8.796;2023-07-08T05:13:02;18.70;84.70
17148;DHT22;8689;47.364;8.796;2023-07-08T05:15:29;18.60;86.80
17148;DHT22;8689;47.364;8.796;2023-07-08T05:17:57;18.40;89.10
17148;DHT22;8689;47.364;8.796;2023-07-08T05:20:24;18.30;90.20
17148;DHT22;8689;47.364;8.796;2023-07-08T05:22:51;18.30;90.40
17148;DHT22;8689;47.364;8.796;2023-07-08T05:25:19;18.30;90.70
17148;DHT22;8689;47.364;8.796;2023-07-08T05:27:47;18.40;92.40
17148;DHT22;8689;47.364;8.796;2023-07-08T05:30:17;18.40;94.60
17148;DHT22;8689;47.364;8.796;2023-07-08T05:32:44;18.30;96.80
17148;DHT22;8689;47.364;8.796;2023-07-08T05:35:13;18.30;99.90
17148;DHT22;8689;47.364;8.796;2023-07-08T05:37:41;18.30;99.90
17148;DHT22;8689;47.364;8.796;2023-07-08T05:40:13;18.30;99.90
17148;DHT22;8689;47.364;8.796;2023-07-08T05:42:41;18.30;99.90
17148;DHT22;8689;47.364;8.796;2023-07-08T05:45:10;18.30;99.90
17148;DHT22;8689;47.364;8.796;2023-07-08T05:47:40;18.30;99.90
17148;DHT22;8689;47.364;8.796;2023-07-08T05:50:07;18.30;99.90
17148;DHT22;8689;47.364;8.796;2023-07-08T05:52:42;18.30;99.90
17148;DHT22;8689;47.364;8.796;2023-07-08T05:55:10;18.40;99.90
17148;DHT22;8689;47.364;8.796;2023-07-08T05:57:41;18.50;99.90
17148;DHT22;8689;47.364;8.796;2023-07-08T06:00:16;18.70;99.90
17148;DHT22;8689;47.364;8.796;2023-07-08T06:02:45;18.90;99.90
17148;DHT22;8689;47.364;8.796;2023-07-08T06:05:15;19.00;99.90
17148;DHT22;8689;47.364;8.796;2023-07-08T06:07:44;19.20;99.90
17148;DHT22;8689;47.364;8.796;2023-07-08T06:10:14;19.30;99.90
17148;DHT22;8689;47.364;8.796;2023-07-08T06:12:45;19.30;99.90
17148;DHT22;8689;47.364;8.796;2023-07-08T06:15:13;19.40;99.90
17148;DHT22;8689;47.364;8.796;2023-07-08T06:17:40;19.50;99.90
17148;DHT22;8689;47.364;8.796;2023-07-08T06:20:09;19.50;98.60
17148;DHT22;8689;47.364;8.796;2023-07-08T06:22:36;19.70;98.20
17148;DHT22;8689;47.364;8.796;2023-07-08T06:25:21;19.90;96.10
17148;DHT22;8689;47.364;8.796;2023-07-08T06:27:49;20.20;95.40
17148;DHT22;8689;47.364;8.796;2023-07-08T06:30:17;20.40;93.80
17148;DHT22;8689;47.364;8.796;2023-07-08T06:32:44;20.70;91.30
17148;DHT22;8689;47.364;8.796;2023-07-08T06:35:11;20.90;90.10
17148;DHT22;8689;47.364;8.796;2023-07-08T06:37:39;21.00;88.60
17148;DHT22;8689;47.364;8.796;2023-07-08T06:40:08;21.20;86.20
17148;DHT22;8689;47.364;8.796;2023-07-08T06:42:42;21.30;85.90
17148;DHT22;8689;47.364;8.796;2023-07-08T06:45:10;21.30;84.90
17148;DHT22;8689;47.364;8.796;2023-07-08T06:47:39;21.40;85.10
17148;DHT22;8689;47.364;8.796;2023-07-08T06:50:08;21.40;83.10
17148;DHT22;8689;47.364;8.796;2023-07-08T06:52:35;21.40;82.00
17148;DHT22;8689;47.364;8.796;2023-07-08T06:55:05;21.30;83.90
17148;DHT22;8689;47.364;8.796;2023-07-08T06:57:33;21.20;81.80
17148;DHT22;8689;47.364;8.796;2023-07-08T07:00:11;21.20;82.10
17148;DHT22;8689;47.364;8.796;2023-07-08T07:02:38;21.20;81.60
17148;DHT22;8689;47.364;8.796;2023-07-08T07:05:07;21.20;81.90
17148;DHT22;8689;47.364;8.796;2023-07-08T07:07:35;21.20;82.60
17148;DHT22;8689;47.364;8.796;2023-07-08T07:10:03;21.10;82.10
17148;DHT22;8689;47.364;8.796;2023-07-08T07:12:31;21.10;82.00
17148;DHT22;8689;47.364;8.796;2023-07-08T07:14:59;21.10;82.20
17148;DHT22;8689;47.364;8.796;2023-07-08T07:17:27;21.20;81.80
17148;DHT22;8689;47.364;8.796;2023-07-08T07:19:54;21.30;82.00
17148;DHT22;8689;47.364;8.796;2023-07-08T07:22:22;21.50;81.90
17148;DHT22;8689;47.364;8.796;2023-07-08T07:24:49;21.70;79.90
17148;DHT22;8689;47.364;8.796;2023-07-08T07:27:16;21.80;79.70
17148;DHT22;8689;47.364;8.796;2023-07-08T07:29:45;22.00;79.20
17148;DHT22;8689;47.364;8.796;2023-07-08T07:32:15;22.20;79.00
17148;DHT22;8689;47.364;8.796;2023-07-08T07:34:46;22.40;78.40
17148;DHT22;8689;47.364;8.796;2023-07-08T07:37:14;22.50;77.10
17148;DHT22;8689;47.364;8.796;2023-07-08T07:39:42;22.30;76.30
17148;DHT22;8689;47.364;8.796;2023-07-08T07:42:11;22.30;77.30
17148;DHT22;8689;47.364;8.796;2023-07-08T07:44:38;22.50;77.10
17148;DHT22;8689;47.364;8.796;2023-07-08T07:47:06;22.40;76.20
17148;DHT22;8689;47.364;8.796;2023-07-08T07:49:34;22.50;76.10
17148;DHT22;8689;47.364;8.796;2023-07-08T07:52:03;22.40;76.30
17148;DHT22;8689;47.364;8.796;2023-07-08T07:54:31;22.30;75.90
17148;DHT22;8689;47.364;8.796;2023-07-08T07:56:59;22.30;76.20
17148;DHT22;8689;47.364;8.796;2023-07-08T07:59:26;22.40;76.50
17148;DHT22;8689;47.364;8.796;2023-07-08T08:01:53;22.50;76.30
17148;DHT22;8689;47.364;8.796;2023-07-08T08:04:20;22.60;75.60
17148;DHT22;8689;47.364;8.796;2023-07-08T08:06:48;22.70;74.90
17148;DHT22;8689;47.364;8.796;2023-07-08T08:09:16;22.90;75.10
17148;DHT22;8689;47.364;8.796;2023-07-08T08:11:44;22.90;74.30
17148;DHT22;8689;47.364;8.796;2023-07-08T08:14:11;23.00;74.40
17148;DHT22;8689;47.364;8.796;2023-07-08T08:16:38;23.20;74.50
17148;DHT22;8689;47.364;8.796;2023-07-08T08:19:05;23.40;74.00
17148;DHT22;8689;47.364;8.796;2023-07-08T08:21:32;23.50;73.90
17148;DHT22;8689;47.364;8.796;2023-07-08T08:24:00;23.70;73.30
17148;DHT22;8689;47.364;8.796;2023-07-08T08:26:29;23.90;72.50
17148;DHT22;8689;47.364;8.796;2023-07-08T08:28:56;24.00;72.20
17148;DHT22;8689;47.364;8.796;2023-07-08T08:31:23;24.10;72.20
17148;DHT22;8689;47.364;8.796;2023-07-08T08:33:51;24.20;72.50
17148;DHT22;8689;47.364;8.796;2023-07-08T08:36:18;24.50;72.00
17148;DHT22;8689;47.364;8.796;2023-07-08T08:38:46;24.60;68.00
17148;DHT22;8689;47.364;8.796;2023-07-08T08:41:16;24.60;67.90
17148;DHT22;8689;47.364;8.796;2023-07-08T08:43:46;24.60;68.10
17148;DHT22;8689;47.364;8.796;2023-07-08T08:46:23;24.70;67.40
17148;DHT22;8689;47.364;8.796;2023-07-08T08:48:57;24.80;67.40
17148;DHT22;8689;47.364;8.796;2023-07-08T08:51:28;24.90;68.30
17148;DHT22;8689;47.364;8.796;2023-07-08T08:53:58;25.10;67.20
17148;DHT22;8689;47.364;8.796;2023-07-08T08:56:41;25.40;67.10
17148;DHT22;8689;47.364;8.796;2023-07-08T08:59:18;25.60;65.40
17148;DHT22;8689;47.364;8.796;2023-07-08T09:01:55;25.90;66.90
17148;DHT22;8689;47.364;8.796;2023-07-08T09:04:31;26.40;63.40
17148;DHT22;8689;47.364;8.796;2023-07-08T09:07:16;26.70;61.50
17148;DHT22;8689;47.364;8.796;2023-07-08T09:09:49;26.90;60.80
17148;DHT22;8689;47.364;8.796;2023-07-08T09:12:24;27.20;58.70
17148;DHT22;8689;47.364;8.796;2023-07-08T09:14:57;27.30;59.40
17148;DHT22;8689;47.364;8.796;2023-07-08T09:17:29;27.30;58.80
17148;DHT22;8689;47.364;8.796;2023-07-08T09:20:03;27.20;60.40
17148;DHT22;8689;47.364;8.796;2023-07-08T09:22:36;27.20;59.70
17148;DHT22;8689;47.364;8.796;2023-07-08T09:25:15;27.00;58.80
17148;DHT22;8689;47.364;8.796;2023-07-08T09:27:47;27.00;59.60
17148;DHT22;8689;47.364;8.796;2023-07-08T09:30:17;26.80;58.80
17148;DHT22;8689;47.364;8.796;2023-07-08T09:32:46;26.70;59.10
17148;DHT22;8689;47.364;8.796;2023-07-08T09:35:18;26.50;59.40
17148;DHT22;8689;47.364;8.796;2023-07-08T09:37:47;26.50;59.70
17148;DHT22;8689;47.364;8.796;2023-07-08T09:40:17;26.80;59.50
17148;DHT22;8689;47.364;8.796;2023-07-08T09:42:48;27.20;60.10
17148;DHT22;8689;47.364;8.796;2023-07-08T09:45:20;27.20;58.00
17148;DHT22;8689;47.364;8.796;2023-07-08T09:47:51;27.10;58.10
17148;DHT22;8689;47.364;8.796;2023-07-08T09:50:20;26.90;58.10
17148;DHT22;8689;47.364;8.796;2023-07-08T09:52:50;26.80;58.80
17148;DHT22;8689;47.364;8.796;2023-07-08T09:55:17;26.80;58.80
17148;DHT22;8689;47.364;8.796;2023-07-08T09:57:46;26.80;58.30
17148;DHT22;8689;47.364;8.796;2023-07-08T10:00:17;26.70;59.00
17148;DHT22;8689;47.364;8.796;2023-07-08T10:02:46;26.60;58.90
17148;DHT22;8689;47.364;8.796;2023-07-08T10:05:20;26.70;60.00
17148;DHT22;8689;47.364;8.796;2023-07-08T10:07:53;27.40;59.30
17148;DHT22;8689;47.364;8.796;2023-07-08T10:10:27;28.30;58.00
17148;DHT22;8689;47.364;8.796;2023-07-08T10:12:57;28.90;57.40
17148;DHT22;8689;47.364;8.796;2023-07-08T10:15:32;29.60;54.60
17148;DHT22;8689;47.364;8.796;2023-07-08T10:18:00;30.10;53.10
17148;DHT22;8689;47.364;8.796;2023-07-08T10:20:37;30.30;50.50
17148;DHT22;8689;47.364;8.796;2023-07-08T10:23:16;30.30;50.40
17148;DHT22;8689;47.364;8.796;2023-07-08T10:25:57;30.20;49.80
17148;DHT22;8689;47.364;8.796;2023-07-08T10:28:32;29.90;50.90
17148;DHT22;8689;47.364;8.796;2023-07-08T10:31:11;29.70;51.70
17148;DHT22;8689;47.364;8.796;2023-07-08T10:36:43;30.00;50.00
17148;DHT22;8689;47.364;8.796;2023-07-08T10:42:26;30.10;49.10
17148;DHT22;8689;47.364;8.796;2023-07-08T10:45:01;30.00;50.60
17148;DHT22;8689;47.364;8.796;2023-07-08T10:47:42;30.00;51.30
17148;DHT22;8689;47.364;8.796;2023-07-08T10:50:24;29.90;50.70
17148;DHT22;8689;47.364;8.796;2023-07-08T10:53:09;29.90;51.60
17148;DHT22;8689;47.364;8.796;2023-07-08T10:55:49;29.80;51.10
17148;DHT22;8689;47.364;8.796;2023-07-08T10:58:36;29.70;50.90
17148;DHT22;8689;47.364;8.796;2023-07-08T11:01:13;29.50;50.80
17148;DHT22;8689;47.364;8.796;2023-07-08T11:04:09;29.10;51.80
17148;DHT22;8689;47.364;8.796;2023-07-08T11:06:48;28.90;53.40
17148;DHT22;8689;47.364;8.796;2023-07-08T11:09:21;28.60;53.60
17148;DHT22;8689;47.364;8.796;2023-07-08T11:11:52;28.40;54.70
17148;DHT22;8689;47.364;8.796;2023-07-08T11:14:24;28.30;53.90
17148;DHT22;8689;47.364;8.796;2023-07-08T11:16:55;28.30;54.00
17148;DHT22;8689;47.364;8.796;2023-07-08T11:19:31;28.40;54.30
17148;DHT22;8689;47.364;8.796;2023-07-08T11:22:03;28.70;53.70
17148;DHT22;8689;47.364;8.796;2023-07-08T11:24:40;29.00;53.60
17148;DHT22;8689;47.364;8.796;2023-07-08T11:27:15;29.20;53.10
17148;DHT22;8689;47.364;8.796;2023-07-08T11:29:50;29.40;54.00
17148;DHT22;8689;47.364;8.796;2023-07-08T11:32:21;29.60;52.10
17148;DHT22;8689;47.364;8.796;2023-07-08T11:34:52;29.80;52.90
17148;DHT22;8689;47.364;8.796;2023-07-08T11:37:20;30.00;52.40
17148;DHT22;8689;47.364;8.796;2023-07-08T11:39:54;30.00;52.10
17148;DHT22;8689;47.364;8.796;2023-07-08T11:42:25;30.30;51.60
17148;DHT22;8689;47.364;8.796;2023-07-08T11:44:59;30.60;50.30
17148;DHT22;8689;47.364;8.796;2023-07-08T11:47:34;30.60;49.90
17148;DHT22;8689;47.364;8.796;2023-07-08T11:50:12;30.80;50.70
17148;DHT22;8689;47.364;8.796;2023-07-08T11:52:51;31.20;54.00
17148;DHT22;8689;47.364;8.796;2023-07-08T11:55:23;31.60;48.70
17148;DHT22;8689;47.364;8.796;2023-07-08T11:57:55;31.20;48.60
17148;DHT22;8689;47.364;8.796;2023-07-08T12:00:32;30.80;49.50
17148;DHT22;8689;47.364;8.796;2023-07-08T12:03:16;30.40;50.20
17148;DHT22;8689;47.364;8.796;2023-07-08T12:05:57;30.00;51.70
17148;DHT22;8689;47.364;8.796;2023-07-08T12:08:36;29.70;53.00
17148;DHT22;8689;47.364;8.796;2023-07-08T12:11:11;29.40;53.50
17148;DHT22;8689;47.364;8.796;2023-07-08T12:13:41;29.20;52.70
17148;DHT22;8689;47.364;8.796;2023-07-08T12:16:10;29.30;52.80
17148;DHT22;8689;47.364;8.796;2023-07-08T12:18:42;30.00;52.70
17148;DHT22;8689;47.364;8.796;2023-07-08T12:21:13;31.30;54.90
17148;DHT22;8689;47.364;8.796;2023-07-08T12:23:45;32.80;46.50
17148;DHT22;8689;47.364;8.796;2023-07-08T12:26:15;33.80;45.30
17148;DHT22;8689;47.364;8.796;2023-07-08T12:28:46;34.60;42.80
17148;DHT22;8689;47.364;8.796;2023-07-08T12:31:19;35.10;43.40
17148;DHT22;8689;47.364;8.796;2023-07-08T12:33:47;35.40;40.60
17148;DHT22;8689;47.364;8.796;2023-07-08T12:36:30;35.60;42.40
17148;DHT22;8689;47.364;8.796;2023-07-08T12:39:02;35.00;41.20
17148;DHT22;8689;47.364;8.796;2023-07-08T12:41:32;33.80;43.00
17148;DHT22;8689;47.364;8.796;2023-07-08T12:44:02;33.20;43.60
17148;DHT22;8689;47.364;8.796;2023-07-08T12:46:30;33.10;44.90
17148;DHT22;8689;47.364;8.796;2023-07-08T12:48:57;33.70;43.50
17148;DHT22;8689;47.364;8.796;2023-07-08T12:51:27;34.30;41.30
17148;DHT22;8689;47.364;8.796;2023-07-08T12:53:54;34.50;41.90
17148;DHT22;8689;47.364;8.796;2023-07-08T12:56:26;34.60;42.50
17148;DHT22;8689;47.364;8.796;2023-07-08T12:58:55;34.90;40.50
17148;DHT22;8689;47.364;8.796;2023-07-08T13:01:25;35.20;41.20
17148;DHT22;8689;47.364;8.796;2023-07-08T13:03:57;35.10;40.60
17148;DHT22;8689;47.364;8.796;2023-07-08T13:06:31;34.70;40.50
17148;DHT22;8689;47.364;8.796;2023-07-08T13:09:05;34.90;41.00
17148;DHT22;8689;47.364;8.796;2023-07-08T13:11:35;35.30;40.70
17148;DHT22;8689;47.364;8.796;2023-07-08T13:14:05;35.80;41.10
17148;DHT22;8689;47.364;8.796;2023-07-08T13:16:34;36.10;41.20
17148;DHT22;8689;47.364;8.796;2023-07-08T13:19:01;36.40;40.80
17148;DHT22;8689;47.364;8.796;2023-07-08T13:21:31;36.70;39.20
17148;DHT22;8689;47.364;8.796;2023-07-08T13:23:59;36.70;38.60
17148;DHT22;8689;47.364;8.796;2023-07-08T13:26:27;36.50;39.10
17148;DHT22;8689;47.364;8.796;2023-07-08T13:29:00;36.50;38.00
17148;DHT22;8689;47.364;8.796;2023-07-08T13:31:33;36.40;36.80
17148;DHT22;8689;47.364;8.796;2023-07-08T13:34:07;36.00;38.20
17148;DHT22;8689;47.364;8.796;2023-07-08T13:36:39;35.50;40.50
17148;DHT22;8689;47.364;8.796;2023-07-08T13:39:08;34.80;41.60
17148;DHT22;8689;47.364;8.796;2023-07-08T13:41:36;34.10;41.30
17148;DHT22;8689;47.364;8.796;2023-07-08T13:44:07;33.50;43.10
17148;DHT22;8689;47.364;8.796;2023-07-08T13:46:37;33.30;44.70
17148;DHT22;8689;47.364;8.796;2023-07-08T13:49:12;33.30;43.00
17148;DHT22;8689;47.364;8.796;2023-07-08T13:51:41;33.30;43.40
17148;DHT22;8689;47.364;8.796;2023-07-08T13:54:18;33.10;43.60
17148;DHT22;8689;47.364;8.796;2023-07-08T13:56:47;33.10;43.50
17148;DHT22;8689;47.364;8.796;2023-07-08T13:59:19;33.30;44.20
17148;DHT22;8689;47.364;8.796;2023-07-08T14:01:46;33.20;45.20
17148;DHT22;8689;47.364;8.796;2023-07-08T14:04:16;33.10;42.30
17148;DHT22;8689;47.364;8.796;2023-07-08T14:06:46;33.00;44.10
17148;DHT22;8689;47.364;8.796;2023-07-08T14:09:15;32.80;44.80
17148;DHT22;8689;47.364;8.796;2023-07-08T14:11:43;32.90;45.70
17148;DHT22;8689;47.364;8.796;2023-07-08T14:14:11;33.00;43.20
17148;DHT22;8689;47.364;8.796;2023-07-08T14:16:40;33.40;43.00
17148;DHT22;8689;47.364;8.796;2023-07-08T14:19:13;34.30;40.50
17148;DHT22;8689;47.364;8.796;2023-07-08T14:21:41;35.30;38.40
17148;DHT22;8689;47.364;8.796;2023-07-08T14:24:13;35.90;37.90
17148;DHT22;8689;47.364;8.796;2023-07-08T14:26:42;36.20;37.30
17148;DHT22;8689;47.364;8.796;2023-07-08T14:29:11;36.50;36.70
17148;DHT22;8689;47.364;8.796;2023-07-08T14:31:39;36.90;34.00
17148;DHT22;8689;47.364;8.796;2023-07-08T14:34:09;37.20;33.60
17148;DHT22;8689;47.364;8.796;2023-07-08T14:36:36;37.60;34.30
17148;DHT22;8689;47.364;8.796;2023-07-08T14:39:13;37.70;34.30
17148;DHT22;8689;47.364;8.796;2023-07-08T14:41:42;37.70;33.50
17148;DHT22;8689;47.364;8.796;2023-07-08T14:44:21;37.80;33.40
17148;DHT22;8689;47.364;8.796;2023-07-08T14:46:49;37.80;33.30
17148;DHT22;8689;47.364;8.796;2023-07-08T14:49:23;37.70;34.70
17148;DHT22;8689;47.364;8.796;2023-07-08T14:51:51;37.80;34.10
17148;DHT22;8689;47.364;8.796;2023-07-08T14:54:24;37.70;34.10
17148;DHT22;8689;47.364;8.796;2023-07-08T14:57:28;37.70;32.20
17148;DHT22;8689;47.364;8.796;2023-07-08T15:00:27;37.70;33.40
17148;DHT22;8689;47.364;8.796;2023-07-08T15:06:34;38.30;31.50
17148;DHT22;8689;47.364;8.796;2023-07-08T15:09:02;38.70;31.10
17148;DHT22;8689;47.364;8.796;2023-07-08T15:11:36;38.50;30.80
17148;DHT22;8689;47.364;8.796;2023-07-08T15:14:06;38.30;32.70
17148;DHT22;8689;47.364;8.796;2023-07-08T15:16:37;38.40;34.80
17148;DHT22;8689;47.364;8.796;2023-07-08T15:19:09;38.70;32.20
17148;DHT22;8689;47.364;8.796;2023-07-08T15:21:37;39.20;33.30
17148;DHT22;8689;47.364;8.796;2023-07-08T15:24:06;39.40;32.70
17148;DHT22;8689;47.364;8.796;2023-07-08T15:26:35;39.60;31.40
17148;DHT22;8689;47.364;8.796;2023-07-08T15:29:02;39.40;30.60
17148;DHT22;8689;47.364;8.796;2023-07-08T15:31:34;39.60;31.50
17148;DHT22;8689;47.364;8.796;2023-07-08T15:34:04;39.30;30.90
17148;DHT22;8689;47.364;8.796;2023-07-08T15:36:31;38.20;30.90
17148;DHT22;8689;47.364;8.796;2023-07-08T15:39:00;36.60;32.60
17148;DHT22;8689;47.364;8.796;2023-07-08T15:41:27;35.60;34.90
17148;DHT22;8689;47.364;8.796;2023-07-08T15:43:56;35.50;36.60
17148;DHT22;8689;47.364;8.796;2023-07-08T15:46:29;35.70;35.80
17148;DHT22;8689;47.364;8.796;2023-07-08T15:48:58;35.00;36.30
17148;DHT22;8689;47.364;8.796;2023-07-08T15:51:25;34.20;38.00
17148;DHT22;8689;47.364;8.796;2023-07-08T15:53:54;33.70;39.20
17148;DHT22;8689;47.364;8.796;2023-07-08T15:56:22;33.30;40.20
17148;DHT22;8689;47.364;8.796;2023-07-08T15:58:50;32.70;41.80
17148;DHT22;8689;47.364;8.796;2023-07-08T16:01:21;32.00;42.70
17148;DHT22;8689;47.364;8.796;2023-07-08T16:03:50;31.50;43.60
17148;DHT22;8689;47.364;8.796;2023-07-08T16:06:25;31.10;45.10
17148;DHT22;8689;47.364;8.796;2023-07-08T16:09:03;30.90;45.60
17148;DHT22;8689;47.364;8.796;2023-07-08T16:11:31;30.70;45.10
17148;DHT22;8689;47.364;8.796;2023-07-08T16:13:59;30.50;44.10